sensor_id;sensor_type;location;lat;lon;timestamp;P1;durP1;ratioP1;P2;durP2;ratioP2
7156;SDS011;3620;49.862;8.758;2022-07-23T00:01:49;0.40;;;0.40;;
7156;SDS011;3620;49.862;8.758;2022-07-23T00:04:15;0.40;;;0.40;;
7156;SDS011;3620;49.862;8.758;2022-07-23T00:06:42;0.40;;;0.40;;
7156;SDS011;3620;49.862;8.758;2022-07-23T00:09:10;0.40;;;0.40;;
7156;SDS011;3620;49.862;8.758;2022-07-23T00:11:37;0.40;;;0.40;;
7156;SDS011;3620;49.862;8.758;2022-07-23T00:14:04;0.40;;;0.40;;
7156;SDS011;3620;49.862;8.758;2022-07-23T00:16:30;0.30;;;0.30;;
7156;SDS011;3620;49.862;8.758;2022-07-23T00:18:57;0.40;;;0.40;;
7156;SDS011;3620;49.862;8.758;2022-07-23T00:21:26;0.40;;;0.40;;
7156;SDS011;3620;49.862;8.758;2022-07-23T00:23:53;0.43;;;0.43;;
7156;SDS011;3620;49.862;8.758;2022-07-23T00:26:21;0.43;;;0.43;;
7156;SDS011;3620;49.862;8.758;2022-07-23T00:28:47;0.40;;;0.40;;
7156;SDS011;3620;49.862;8.758;2022-07-23T00:31:14;0.47;;;0.47;;
7156;SDS011;3620;49.862;8.758;2022-07-23T00:33:41;0.40;;;0.40;;
7156;SDS011;3620;49.862;8.758;2022-07-23T00:36:08;0.40;;;0.40;;
7156;SDS011;3620;49.862;8.758;2022-07-23T00:38:35;0.40;;;0.40;;
7156;SDS011;3620;49.862;8.758;2022-07-23T00:41:01;0.40;;;0.40;;
7156;SDS011;3620;49.862;8.758;2022-07-23T00:43:29;0.30;;;0.30;;
7156;SDS011;3620;49.862;8.758;2022-07-23T00:45:56;0.40;;;0.40;;
7156;SDS011;3620;49.862;8.758;2022-07-23T00:48:23;0.40;;;0.40;;
7156;SDS011;3620;49.862;8.758;2022-07-23T00:50:49;0.47;;;0.47;;
7156;SDS011;3620;49.862;8.758;2022-07-23T00:53:16;0.50;;;0.50;;
7156;SDS011;3620;49.862;8.758;2022-07-23T00:55:43;0.40;;;0.40;;
7156;SDS011;3620;49.862;8.758;2022-07-23T00:58:10;0.40;;;0.40;;
7156;SDS011;3620;49.862;8.758;2022-07-23T01:00:42;0.50;;;0.50;;
7156;SDS011;3620;49.862;8.758;2022-07-23T01:03:10;0.50;;;0.50;;
7156;SDS011;3620;49.862;8.758;2022-07-23T01:05:36;0.40;;;0.40;;
7156;SDS011;3620;49.862;8.758;2022-07-23T01:08:05;0.50;;;0.50;;
7156;SDS011;3620;49.862;8.758;2022-07-23T01:10:31;0.40;;;0.40;;
7156;SDS011;3620;49.862;8.758;2022-07-23T01:12:59;0.50;;;0.50;;
7156;SDS011;3620;49.862;8.758;2022-07-23T01:15:26;0.50;;;0.50;;
7156;SDS011;3620;49.862;8.758;2022-07-23T01:17:55;0.57;;;0.57;;
7156;SDS011;3620;49.862;8.758;2022-07-23T01:20:21;0.40;;;0.40;;
7156;SDS011;3620;49.862;8.758;2022-07-23T01:22:50;0.50;;;0.50;;
7156;SDS011;3620;49.862;8.758;2022-07-23T01:25:17;0.50;;;0.50;;
7156;SDS011;3620;49.862;8.758;2022-07-23T01:27:45;0.50;;;0.50;;
7156;SDS011;3620;49.862;8.758;2022-07-23T01:30:12;0.40;;;0.40;;
7156;SDS011;3620;49.862;8.758;2022-07-23T01:32:39;0.60;;;0.60;;
7156;SDS011;3620;49.862;8.758;2022-07-23T01:35:07;0.47;;;0.47;;
7156;SDS011;3620;49.862;8.758;2022-07-23T01:37:34;0.50;;;0.50;;
7156;SDS011;3620;49.862;8.758;2022-07-23T01:40:03;0.50;;;0.50;;
7156;SDS011;3620;49.862;8.758;2022-07-23T01:42:31;0.50;;;0.50;;
7156;SDS011;3620;49.862;8.758;2022-07-23T01:44:58;0.43;;;0.43;;
7156;SDS011;3620;49.862;8.758;2022-07-23T01:47:25;0.50;;;0.50;;
7156;SDS011;3620;49.862;8.758;2022-07-23T01:49:52;0.50;;;0.50;;
7156;SDS011;3620;49.862;8.758;2022-07-23T01:52:19;0.50;;;0.50;;
7156;SDS011;3620;49.862;8.758;2022-07-23T01:54:45;0.50;;;0.50;;
7156;SDS011;3620;49.862;8.758;2022-07-23T01:57:13;0.50;;;0.50;;
7156;SDS011;3620;49.862;8.758;2022-07-23T01:59:40;0.50;;;0.50;;
7156;SDS011;3620;49.862;8.758;2022-07-23T02:02:07;0.50;;;0.50;;
7156;SDS011;3620;49.862;8.758;2022-07-23T02:04:33;0.50;;;0.50;;
7156;SDS011;3620;49.862;8.758;2022-07-23T02:07:01;0.50;;;0.50;;
7156;SDS011;3620;49.862;8.758;2022-07-23T02:09:28;0.50;;;0.50;;
7156;SDS011;3620;49.862;8.758;2022-07-23T02:11:55;0.50;;;0.50;;
7156;SDS011;3620;49.862;8.758;2022-07-23T02:14:24;0.50;;;0.50;;
7156;SDS011;3620;49.862;8.758;2022-07-23T02:16:50;0.50;;;0.50;;
7156;SDS011;3620;49.862;8.758;2022-07-23T02:19:17;0.50;;;0.50;;
7156;SDS011;3620;49.862;8.758;2022-07-23T02:21:44;0.50;;;0.50;;
7156;SDS011;3620;49.862;8.758;2022-07-23T02:24:10;0.60;;;0.60;;
7156;SDS011;3620;49.862;8.758;2022-07-23T02:26:37;0.60;;;0.60;;
7156;SDS011;3620;49.862;8.758;2022-07-23T02:29:04;0.50;;;0.50;;
7156;SDS011;3620;49.862;8.758;2022-07-23T02:31:32;0.50;;;0.50;;
7156;SDS011;3620;49.862;8.758;2022-07-23T02:33:59;0.50;;;0.50;;
7156;SDS011;3620;49.862;8.758;2022-07-23T02:36:26;0.60;;;0.60;;
7156;SDS011;3620;49.862;8.758;2022-07-23T02:38:53;0.50;;;0.50;;
7156;SDS011;3620;49.862;8.758;2022-07-23T02:41:20;0.50;;;0.50;;
7156;SDS011;3620;49.862;8.758;2022-07-23T02:43:47;0.50;;;0.50;;
7156;SDS011;3620;49.862;8.758;2022-07-23T02:46:13;0.50;;;0.50;;
7156;SDS011;3620;49.862;8.758;2022-07-23T02:48:42;0.50;;;0.50;;
7156;SDS011;3620;49.862;8.758;2022-07-23T02:51:08;0.50;;;0.50;;
7156;SDS011;3620;49.862;8.758;2022-07-23T02:53:35;0.50;;;0.50;;
7156;SDS011;3620;49.862;8.758;2022-07-23T02:56:02;0.50;;;0.50;;
7156;SDS011;3620;49.862;8.758;2022-07-23T02:58:29;0.50;;;0.50;;
7156;SDS011;3620;49.862;8.758;2022-07-23T03:00:55;0.50;;;0.50;;
7156;SDS011;3620;49.862;8.758;2022-07-23T03:03:22;0.50;;;0.50;;
7156;SDS011;3620;49.862;8.758;2022-07-23T03:05:50;0.50;;;0.50;;
7156;SDS011;3620;49.862;8.758;2022-07-23T03:08:17;0.60;;;0.60;;
7156;SDS011;3620;49.862;8.758;2022-07-23T03:10:43;0.53;;;0.53;;
7156;SDS011;3620;49.862;8.758;2022-07-23T03:13:10;0.50;;;0.50;;
7156;SDS011;3620;49.862;8.758;2022-07-23T03:15:37;0.50;;;0.50;;
7156;SDS011;3620;49.862;8.758;2022-07-23T03:18:04;0.50;;;0.50;;
7156;SDS011;3620;49.862;8.758;2022-07-23T03:20:30;0.50;;;0.50;;
7156;SDS011;3620;49.862;8.758;2022-07-23T03:22:58;0.50;;;0.50;;
7156;SDS011;3620;49.862;8.758;2022-07-23T03:25:25;0.50;;;0.50;;
7156;SDS011;3620;49.862;8.758;2022-07-23T03:27:52;0.50;;;0.50;;
7156;SDS011;3620;49.862;8.758;2022-07-23T03:30:18;0.50;;;0.50;;
7156;SDS011;3620;49.862;8.758;2022-07-23T03:32:45;0.57;;;0.57;;
7156;SDS011;3620;49.862;8.758;2022-07-23T03:35:12;0.60;;;0.60;;
7156;SDS011;3620;49.862;8.758;2022-07-23T03:37:38;0.50;;;0.50;;
7156;SDS011;3620;49.862;8.758;2022-07-23T03:40:07;0.60;;;0.60;;
7156;SDS011;3620;49.862;8.758;2022-07-23T03:42:34;0.60;;;0.60;;
7156;SDS011;3620;49.862;8.758;2022-07-23T03:45:02;0.50;;;0.50;;
7156;SDS011;3620;49.862;8.758;2022-07-23T03:47:29;0.50;;;0.50;;
7156;SDS011;3620;49.862;8.758;2022-07-23T03:49:56;0.60;;;0.60;;
7156;SDS011;3620;49.862;8.758;2022-07-23T03:52:23;0.60;;;0.60;;
7156;SDS011;3620;49.862;8.758;2022-07-23T03:54:49;0.50;;;0.50;;
7156;SDS011;3620;49.862;8.758;2022-07-23T03:57:18;0.50;;;0.50;;
7156;SDS011;3620;49.862;8.758;2022-07-23T03:59:44;0.53;;;0.53;;
7156;SDS011;3620;49.862;8.758;2022-07-23T04:02:11;0.50;;;0.50;;
7156;SDS011;3620;49.862;8.758;2022-07-23T04:04:38;0.50;;;0.50;;
7156;SDS011;3620;49.862;8.758;2022-07-23T04:07:04;0.50;;;0.50;;
7156;SDS011;3620;49.862;8.758;2022-07-23T04:09:32;0.53;;;0.53;;
7156;SDS011;3620;49.862;8.758;2022-07-23T04:11:59;0.50;;;0.50;;
7156;SDS011;3620;49.862;8.758;2022-07-23T04:14:28;0.50;;;0.50;;
7156;SDS011;3620;49.862;8.758;2022-07-23T04:16:55;0.50;;;0.50;;
7156;SDS011;3620;49.862;8.758;2022-07-23T04:19:22;0.50;;;0.50;;
7156;SDS011;3620;49.862;8.758;2022-07-23T04:21:48;0.50;;;0.50;;
7156;SDS011;3620;49.862;8.758;2022-07-23T04:24:15;0.50;;;0.50;;
7156;SDS011;3620;49.862;8.758;2022-07-23T04:26:42;0.50;;;0.50;;
7156;SDS011;3620;49.862;8.758;2022-07-23T04:29:08;0.57;;;0.57;;
7156;SDS011;3620;49.862;8.758;2022-07-23T04:31:36;0.50;;;0.50;;
7156;SDS011;3620;49.862;8.758;2022-07-23T04:34:03;0.40;;;0.40;;
7156;SDS011;3620;49.862;8.758;2022-07-23T04:36:30;0.50;;;0.50;;
7156;SDS011;3620;49.862;8.758;2022-07-23T04:38:56;0.60;;;0.60;;
7156;SDS011;3620;49.862;8.758;2022-07-23T04:41:23;0.50;;;0.50;;
7156;SDS011;3620;49.862;8.758;2022-07-23T04:43:50;0.50;;;0.50;;
7156;SDS011;3620;49.862;8.758;2022-07-23T04:46:17;0.60;;;0.60;;
7156;SDS011;3620;49.862;8.758;2022-07-23T04:48:45;0.50;;;0.50;;
7156;SDS011;3620;49.862;8.758;2022-07-23T04:51:12;0.50;;;0.50;;
7156;SDS011;3620;49.862;8.758;2022-07-23T04:53:39;0.53;;;0.53;;
7156;SDS011;3620;49.862;8.758;2022-07-23T04:56:06;0.60;;;0.60;;
7156;SDS011;3620;49.862;8.758;2022-07-23T04:58:33;0.57;;;0.57;;
7156;SDS011;3620;49.862;8.758;2022-07-23T05:01:00;0.50;;;0.50;;
7156;SDS011;3620;49.862;8.758;2022-07-23T05:03:26;0.50;;;0.50;;
7156;SDS011;3620;49.862;8.758;2022-07-23T05:05:55;0.50;;;0.50;;
7156;SDS011;3620;49.862;8.758;2022-07-23T05:08:22;0.50;;;0.50;;
7156;SDS011;3620;49.862;8.758;2022-07-23T05:10:49;0.50;;;0.50;;
7156;SDS011;3620;49.862;8.758;2022-07-23T05:13:16;0.50;;;0.50;;
7156;SDS011;3620;49.862;8.758;2022-07-23T05:15:43;0.50;;;0.50;;
7156;SDS011;3620;49.862;8.758;2022-07-23T05:18:10;0.57;;;0.57;;
7156;SDS011;3620;49.862;8.758;2022-07-23T05:20:37;0.50;;;0.50;;
7156;SDS011;3620;49.862;8.758;2022-07-23T05:23:06;0.50;;;0.50;;
7156;SDS011;3620;49.862;8.758;2022-07-23T05:25:33;0.60;;;0.60;;
7156;SDS011;3620;49.862;8.758;2022-07-23T05:28:00;0.40;;;0.40;;
7156;SDS011;3620;49.862;8.758;2022-07-23T05:30:26;0.50;;;0.50;;
7156;SDS011;3620;49.862;8.758;2022-07-23T05:32:53;0.50;;;0.50;;
7156;SDS011;3620;49.862;8.758;2022-07-23T05:35:20;0.50;;;0.50;;
7156;SDS011;3620;49.862;8.758;2022-07-23T05:37:47;0.43;;;0.43;;
7156;SDS011;3620;49.862;8.758;2022-07-23T05:40:15;0.60;;;0.60;;
7156;SDS011;3620;49.862;8.758;2022-07-23T05:42:42;0.50;;;0.50;;
7156;SDS011;3620;49.862;8.758;2022-07-23T05:45:09;0.50;;;0.50;;
7156;SDS011;3620;49.862;8.758;2022-07-23T05:47:40;0.57;;;0.57;;
7156;SDS011;3620;49.862;8.758;2022-07-23T05:50:07;0.40;;;0.40;;
7156;SDS011;3620;49.862;8.758;2022-07-23T05:52:35;0.50;;;0.50;;
7156;SDS011;3620;49.862;8.758;2022-07-23T05:55:02;0.50;;;0.50;;
7156;SDS011;3620;49.862;8.758;2022-07-23T05:57:30;0.43;;;0.43;;
7156;SDS011;3620;49.862;8.758;2022-07-23T05:59:57;0.57;;;0.57;;
7156;SDS011;3620;49.862;8.758;2022-07-23T06:02:23;0.60;;;0.60;;
7156;SDS011;3620;49.862;8.758;2022-07-23T06:04:50;0.60;;;0.60;;
7156;SDS011;3620;49.862;8.758;2022-07-23T06:07:17;0.57;;;0.57;;
7156;SDS011;3620;49.862;8.758;2022-07-23T06:09:43;0.50;;;0.50;;
7156;SDS011;3620;49.862;8.758;2022-07-23T06:12:12;0.50;;;0.50;;
7156;SDS011;3620;49.862;8.758;2022-07-23T06:14:43;0.50;;;0.50;;
7156;SDS011;3620;49.862;8.758;2022-07-23T06:17:10;0.60;;;0.60;;
7156;SDS011;3620;49.862;8.758;2022-07-23T06:19:36;0.50;;;0.50;;
7156;SDS011;3620;49.862;8.758;2022-07-23T06:22:03;0.50;;;0.50;;
7156;SDS011;3620;49.862;8.758;2022-07-23T06:24:30;0.60;;;0.60;;
7156;SDS011;3620;49.862;8.758;2022-07-23T06:26:56;0.60;;;0.60;;
7156;SDS011;3620;49.862;8.758;2022-07-23T06:29:23;0.57;;;0.57;;
7156;SDS011;3620;49.862;8.758;2022-07-23T06:31:51;0.60;;;0.60;;
7156;SDS011;3620;49.862;8.758;2022-07-23T06:34:18;0.50;;;0.50;;
7156;SDS011;3620;49.862;8.758;2022-07-23T06:36:45;0.50;;;0.50;;
7156;SDS011;3620;49.862;8.758;2022-07-23T06:39:12;0.50;;;0.50;;
7156;SDS011;3620;49.862;8.758;2022-07-23T06:41:38;0.50;;;0.50;;
7156;SDS011;3620;49.862;8.758;2022-07-23T06:44:05;0.50;;;0.50;;
7156;SDS011;3620;49.862;8.758;2022-07-23T06:46:32;0.50;;;0.50;;
7156;SDS011;3620;49.862;8.758;2022-07-23T06:49:00;0.50;;;0.50;;
7156;SDS011;3620;49.862;8.758;2022-07-23T06:51:27;0.50;;;0.50;;
7156;SDS011;3620;49.862;8.758;2022-07-23T06:53:53;0.50;;;0.50;;
7156;SDS011;3620;49.862;8.758;2022-07-23T06:56:20;0.57;;;0.57;;
7156;SDS011;3620;49.862;8.758;2022-07-23T06:58:47;0.60;;;0.60;;
7156;SDS011;3620;49.862;8.758;2022-07-23T07:01:13;0.50;;;0.50;;
7156;SDS011;3620;49.862;8.758;2022-07-23T07:03:40;0.50;;;0.50;;
7156;SDS011;3620;49.862;8.758;2022-07-23T07:06:08;0.50;;;0.50;;
7156;SDS011;3620;49.862;8.758;2022-07-23T07:08:35;0.50;;;0.50;;
7156;SDS011;3620;49.862;8.758;2022-07-23T07:11:02;0.60;;;0.60;;
7156;SDS011;3620;49.862;8.758;2022-07-23T07:13:29;0.60;;;0.60;;
7156;SDS011;3620;49.862;8.758;2022-07-23T07:15:56;0.50;;;0.50;;
7156;SDS011;3620;49.862;8.758;2022-07-23T07:18:22;0.50;;;0.50;;
7156;SDS011;3620;49.862;8.758;2022-07-23T07:20:49;0.50;;;0.50;;
7156;SDS011;3620;49.862;8.758;2022-07-23T07:23:17;0.50;;;0.50;;
7156;SDS011;3620;49.862;8.758;2022-07-23T07:25:45;0.50;;;0.50;;
7156;SDS011;3620;49.862;8.758;2022-07-23T07:28:12;0.53;;;0.53;;
7156;SDS011;3620;49.862;8.758;2022-07-23T07:30:39;0.60;;;0.60;;
7156;SDS011;3620;49.862;8.758;2022-07-23T07:33:06;0.50;;;0.50;;
7156;SDS011;3620;49.862;8.758;2022-07-23T07:35:33;0.60;;;0.60;;
7156;SDS011;3620;49.862;8.758;2022-07-23T07:37:59;0.60;;;0.60;;
7156;SDS011;3620;49.862;8.758;2022-07-23T07:40:27;0.60;;;0.60;;
7156;SDS011;3620;49.862;8.758;2022-07-23T07:42:54;0.53;;;0.53;;
7156;SDS011;3620;49.862;8.758;2022-07-23T07:45:22;0.57;;;0.57;;
7156;SDS011;3620;49.862;8.758;2022-07-23T07:47:50;0.50;;;0.50;;
7156;SDS011;3620;49.862;8.758;2022-07-23T07:50:17;0.50;;;0.50;;
7156;SDS011;3620;49.862;8.758;2022-07-23T07:52:45;0.60;;;0.60;;
7156;SDS011;3620;49.862;8.758;2022-07-23T07:55:11;0.50;;;0.50;;
7156;SDS011;3620;49.862;8.758;2022-07-23T07:57:40;0.50;;;0.50;;
7156;SDS011;3620;49.862;8.758;2022-07-23T08:00:08;0.60;;;0.60;;
7156;SDS011;3620;49.862;8.758;2022-07-23T08:02:39;0.50;;;0.50;;
7156;SDS011;3620;49.862;8.758;2022-07-23T08:05:08;0.50;;;0.50;;
7156;SDS011;3620;49.862;8.758;2022-07-23T08:07:35;0.50;;;0.50;;
7156;SDS011;3620;49.862;8.758;2022-07-23T08:10:02;0.50;;;0.50;;
7156;SDS011;3620;49.862;8.758;2022-07-23T08:12:37;0.50;;;0.50;;
7156;SDS011;3620;49.862;8.758;2022-07-23T08:15:06;0.50;;;0.50;;
7156;SDS011;3620;49.862;8.758;2022-07-23T08:17:34;0.40;;;0.40;;
7156;SDS011;3620;49.862;8.758;2022-07-23T08:20:01;0.40;;;0.40;;
7156;SDS011;3620;49.862;8.758;2022-07-23T08:22:41;0.50;;;0.50;;
7156;SDS011;3620;49.862;8.758;2022-07-23T08:25:09;0.40;;;0.40;;
7156;SDS011;3620;49.862;8.758;2022-07-23T08:27:36;0.50;;;0.50;;
7156;SDS011;3620;49.862;8.758;2022-07-23T08:30:03;0.40;;;0.40;;
7156;SDS011;3620;49.862;8.758;2022-07-23T08:32:31;0.47;;;0.47;;
7156;SDS011;3620;49.862;8.758;2022-07-23T08:34:58;0.40;;;0.40;;
7156;SDS011;3620;49.862;8.758;2022-07-23T08:37:25;0.40;;;0.40;;
7156;SDS011;3620;49.862;8.758;2022-07-23T08:39:51;0.40;;;0.40;;
7156;SDS011;3620;49.862;8.758;2022-07-23T08:42:18;0.40;;;0.40;;
7156;SDS011;3620;49.862;8.758;2022-07-23T08:44:47;0.50;;;0.50;;
7156;SDS011;3620;49.862;8.758;2022-07-23T08:47:14;0.50;;;0.50;;
7156;SDS011;3620;49.862;8.758;2022-07-23T08:49:43;0.50;;;0.50;;
7156;SDS011;3620;49.862;8.758;2022-07-23T08:52:10;0.40;;;0.40;;
7156;SDS011;3620;49.862;8.758;2022-07-23T08:54:37;0.40;;;0.40;;
7156;SDS011;3620;49.862;8.758;2022-07-23T08:57:04;0.40;;;0.40;;
7156;SDS011;3620;49.862;8.758;2022-07-23T08:59:31;0.40;;;0.40;;
7156;SDS011;3620;49.862;8.758;2022-07-23T09:01:58;0.40;;;0.40;;
7156;SDS011;3620;49.862;8.758;2022-07-23T09:04:25;0.50;;;0.50;;
7156;SDS011;3620;49.862;8.758;2022-07-23T09:06:53;0.50;;;0.50;;
7156;SDS011;3620;49.862;8.758;2022-07-23T09:09:21;0.50;;;0.50;;
7156;SDS011;3620;49.862;8.758;2022-07-23T09:11:51;0.40;;;0.40;;
7156;SDS011;3620;49.862;8.758;2022-07-23T09:14:36;0.50;;;0.50;;
7156;SDS011;3620;49.862;8.758;2022-07-23T09:17:11;0.47;;;0.47;;
7156;SDS011;3620;49.862;8.758;2022-07-23T09:19:38;0.50;;;0.50;;
7156;SDS011;3620;49.862;8.758;2022-07-23T09:22:20;0.40;;;0.40;;
7156;SDS011;3620;49.862;8.758;2022-07-23T09:25:04;0.50;;;0.50;;
7156;SDS011;3620;49.862;8.758;2022-07-23T09:30:28;0.50;;;0.50;;
7156;SDS011;3620;49.862;8.758;2022-07-23T09:33:03;0.40;;;0.40;;
7156;SDS011;3620;49.862;8.758;2022-07-23T09:38:15;0.50;;;0.50;;
7156;SDS011;3620;49.862;8.758;2022-07-23T09:40:43;0.40;;;0.40;;
7156;SDS011;3620;49.862;8.758;2022-07-23T09:43:11;0.50;;;0.50;;
7156;SDS011;3620;49.862;8.758;2022-07-23T09:45:38;0.40;;;0.40;;
7156;SDS011;3620;49.862;8.758;2022-07-23T09:48:12;0.40;;;0.40;;
7156;SDS011;3620;49.862;8.758;2022-07-23T09:50:40;0.40;;;0.40;;
7156;SDS011;3620;49.862;8.758;2022-07-23T09:53:08;0.40;;;0.40;;
7156;SDS011;3620;49.862;8.758;2022-07-23T09:55:37;0.47;;;0.47;;
7156;SDS011;3620;49.862;8.758;2022-07-23T09:58:05;0.40;;;0.40;;
7156;SDS011;3620;49.862;8.758;2022-07-23T10:00:34;0.40;;;0.40;;
7156;SDS011;3620;49.862;8.758;2022-07-23T10:03:02;0.40;;;0.40;;
7156;SDS011;3620;49.862;8.758;2022-07-23T10:05:30;0.40;;;0.40;;
7156;SDS011;3620;49.862;8.758;2022-07-23T10:07:59;0.43;;;0.43;;
7156;SDS011;3620;49.862;8.758;2022-07-23T10:10:27;0.40;;;0.40;;
7156;SDS011;3620;49.862;8.758;2022-07-23T10:12:56;0.40;;;0.40;;
7156;SDS011;3620;49.862;8.758;2022-07-23T10:15:46;0.43;;;0.43;;
7156;SDS011;3620;49.862;8.758;2022-07-23T10:18:13;0.43;;;0.43;;
7156;SDS011;3620;49.862;8.758;2022-07-23T10:20:39;0.40;;;0.40;;
7156;SDS011;3620;49.862;8.758;2022-07-23T10:23:10;0.40;;;0.40;;
7156;SDS011;3620;49.862;8.758;2022-07-23T10:25:49;0.40;;;0.40;;
7156;SDS011;3620;49.862;8.758;2022-07-23T10:28:33;0.40;;;0.40;;
7156;SDS011;3620;49.862;8.758;2022-07-23T10:31:17;0.40;;;0.40;;
7156;SDS011;3620;49.862;8.758;2022-07-23T10:33:59;0.30;;;0.30;;
7156;SDS011;3620;49.862;8.758;2022-07-23T10:36:37;0.40;;;0.40;;
7156;SDS011;3620;49.862;8.758;2022-07-23T10:39:13;0.50;;;0.50;;
7156;SDS011;3620;49.862;8.758;2022-07-23T10:41:41;0.40;;;0.40;;
7156;SDS011;3620;49.862;8.758;2022-07-23T10:44:10;0.40;;;0.40;;
7156;SDS011;3620;49.862;8.758;2022-07-23T10:49:27;0.40;;;0.40;;
7156;SDS011;3620;49.862;8.758;2022-07-23T10:54:48;0.40;;;0.40;;
7156;SDS011;3620;49.862;8.758;2022-07-23T10:57:17;0.40;;;0.40;;
7156;SDS011;3620;49.862;8.758;2022-07-23T11:03:03;0.40;;;0.40;;
7156;SDS011;3620;49.862;8.758;2022-07-23T11:05:39;0.40;;;0.40;;
7156;SDS011;3620;49.862;8.758;2022-07-23T11:08:12;0.40;;;0.40;;
7156;SDS011;3620;49.862;8.758;2022-07-23T11:10:45;0.40;;;0.40;;
7156;SDS011;3620;49.862;8.758;2022-07-23T11:16:14;0.40;;;0.40;;
7156;SDS011;3620;49.862;8.758;2022-07-23T11:21:42;0.30;;;0.30;;
7156;SDS011;3620;49.862;8.758;2022-07-23T11:24:13;0.40;;;0.40;;
7156;SDS011;3620;49.862;8.758;2022-07-23T11:26:46;0.40;;;0.40;;
7156;SDS011;3620;49.862;8.758;2022-07-23T11:37:54;0.30;;;0.30;;
7156;SDS011;3620;49.862;8.758;2022-07-23T11:40:28;0.30;;;0.30;;
7156;SDS011;3620;49.862;8.758;2022-07-23T11:42:56;0.40;;;0.40;;
7156;SDS011;3620;49.862;8.758;2022-07-23T11:45:25;0.32;;;0.32;;
7156;SDS011;3620;49.862;8.758;2022-07-23T11:47:57;0.30;;;0.30;;
7156;SDS011;3620;49.862;8.758;2022-07-23T11:50:25;0.30;;;0.30;;
7156;SDS011;3620;49.862;8.758;2022-07-23T11:52:52;0.30;;;0.30;;
7156;SDS011;3620;49.862;8.758;2022-07-23T11:55:19;0.30;;;0.30;;
7156;SDS011;3620;49.862;8.758;2022-07-23T11:57:47;0.38;;;0.38;;
7156;SDS011;3620;49.862;8.758;2022-07-23T12:00:18;0.40;;;0.40;;
7156;SDS011;3620;49.862;8.758;2022-07-23T12:02:46;0.40;;;0.40;;
7156;SDS011;3620;49.862;8.758;2022-07-23T12:05:15;0.40;;;0.40;;
7156;SDS011;3620;49.862;8.758;2022-07-23T12:07:44;0.40;;;0.40;;
7156;SDS011;3620;49.862;8.758;2022-07-23T12:10:15;0.40;;;0.40;;
7156;SDS011;3620;49.862;8.758;2022-07-23T12:12:43;0.30;;;0.30;;
7156;SDS011;3620;49.862;8.758;2022-07-23T12:15:12;0.40;;;0.40;;
7156;SDS011;3620;49.862;8.758;2022-07-23T12:17:40;0.40;;;0.40;;
7156;SDS011;3620;49.862;8.758;2022-07-23T12:20:09;0.40;;;0.40;;
7156;SDS011;3620;49.862;8.758;2022-07-23T12:22:39;0.40;;;0.40;;
7156;SDS011;3620;49.862;8.758;2022-07-23T12:25:09;0.30;;;0.30;;
7156;SDS011;3620;49.862;8.758;2022-07-23T12:27:38;0.30;;;0.30;;
7156;SDS011;3620;49.862;8.758;2022-07-23T12:30:15;0.30;;;0.30;;
7156;SDS011;3620;49.862;8.758;2022-07-23T12:32:43;0.30;;;0.30;;
7156;SDS011;3620;49.862;8.758;2022-07-23T12:35:10;0.30;;;0.30;;
7156;SDS011;3620;49.862;8.758;2022-07-23T12:37:38;0.30;;;0.30;;
7156;SDS011;3620;49.862;8.758;2022-07-23T12:40:21;0.30;;;0.30;;
7156;SDS011;3620;49.862;8.758;2022-07-23T12:42:51;0.40;;;0.40;;
7156;SDS011;3620;49.862;8.758;2022-07-23T12:45:19;0.40;;;0.40;;
7156;SDS011;3620;49.862;8.758;2022-07-23T12:47:59;0.40;;;0.40;;
7156;SDS011;3620;49.862;8.758;2022-07-23T12:50:32;0.35;;;0.35;;
7156;SDS011;3620;49.862;8.758;2022-07-23T12:53:07;0.30;;;0.30;;
7156;SDS011;3620;49.862;8.758;2022-07-23T12:55:37;0.40;;;0.40;;
7156;SDS011;3620;49.862;8.758;2022-07-23T12:58:05;0.30;;;0.30;;
7156;SDS011;3620;49.862;8.758;2022-07-23T13:03:33;0.35;;;0.35;;
7156;SDS011;3620;49.862;8.758;2022-07-23T13:06:03;0.32;;;0.32;;
7156;SDS011;3620;49.862;8.758;2022-07-23T13:08:32;0.40;;;0.40;;
7156;SDS011;3620;49.862;8.758;2022-07-23T13:11:01;0.40;;;0.40;;
7156;SDS011;3620;49.862;8.758;2022-07-23T13:13:30;0.40;;;0.40;;
7156;SDS011;3620;49.862;8.758;2022-07-23T13:15:58;0.40;;;0.40;;
7156;SDS011;3620;49.862;8.758;2022-07-23T13:18:26;0.40;;;0.40;;
7156;SDS011;3620;49.862;8.758;2022-07-23T13:20:54;0.30;;;0.30;;
7156;SDS011;3620;49.862;8.758;2022-07-23T13:23:21;0.30;;;0.30;;
7156;SDS011;3620;49.862;8.758;2022-07-23T13:25:48;0.30;;;0.30;;
7156;SDS011;3620;49.862;8.758;2022-07-23T13:28:17;0.40;;;0.40;;
7156;SDS011;3620;49.862;8.758;2022-07-23T13:30:44;0.40;;;0.40;;
7156;SDS011;3620;49.862;8.758;2022-07-23T13:33:14;0.30;;;0.30;;
7156;SDS011;3620;49.862;8.758;2022-07-23T13:35:42;0.35;;;0.35;;
7156;SDS011;3620;49.862;8.758;2022-07-23T13:38:09;0.40;;;0.40;;
7156;SDS011;3620;49.862;8.758;2022-07-23T13:40:36;0.30;;;0.30;;
7156;SDS011;3620;49.862;8.758;2022-07-23T13:43:05;0.40;;;0.40;;
7156;SDS011;3620;49.862;8.758;2022-07-23T13:45:34;0.35;;;0.35;;
7156;SDS011;3620;49.862;8.758;2022-07-23T13:48:01;0.30;;;0.30;;
7156;SDS011;3620;49.862;8.758;2022-07-23T13:50:29;0.30;;;0.30;;
7156;SDS011;3620;49.862;8.758;2022-07-23T13:52:56;0.40;;;0.40;;
7156;SDS011;3620;49.862;8.758;2022-07-23T13:55:23;0.30;;;0.30;;
7156;SDS011;3620;49.862;8.758;2022-07-23T13:57:49;0.40;;;0.40;;
7156;SDS011;3620;49.862;8.758;2022-07-23T14:00:16;0.35;;;0.35;;
7156;SDS011;3620;49.862;8.758;2022-07-23T14:02:44;0.40;;;0.40;;
7156;SDS011;3620;49.862;8.758;2022-07-23T14:05:11;0.30;;;0.30;;
7156;SDS011;3620;49.862;8.758;2022-07-23T14:07:39;0.30;;;0.30;;
7156;SDS011;3620;49.862;8.758;2022-07-23T14:10:08;0.30;;;0.30;;
7156;SDS011;3620;49.862;8.758;2022-07-23T14:12:35;0.30;;;0.30;;
7156;SDS011;3620;49.862;8.758;2022-07-23T14:15:02;0.30;;;0.30;;
7156;SDS011;3620;49.862;8.758;2022-07-23T14:17:30;0.30;;;0.30;;
7156;SDS011;3620;49.862;8.758;2022-07-23T14:19:59;0.30;;;0.30;;
7156;SDS011;3620;49.862;8.758;2022-07-23T14:22:25;0.30;;;0.30;;
7156;SDS011;3620;49.862;8.758;2022-07-23T14:24:52;0.30;;;0.30;;
7156;SDS011;3620;49.862;8.758;2022-07-23T14:27:19;0.30;;;0.30;;
7156;SDS011;3620;49.862;8.758;2022-07-23T14:29:46;0.30;;;0.30;;
7156;SDS011;3620;49.862;8.758;2022-07-23T14:32:12;0.30;;;0.30;;
7156;SDS011;3620;49.862;8.758;2022-07-23T14:34:39;0.30;;;0.30;;
7156;SDS011;3620;49.862;8.758;2022-07-23T14:37:07;0.30;;;0.30;;
7156;SDS011;3620;49.862;8.758;2022-07-23T14:39:36;0.22;;;0.22;;
7156;SDS011;3620;49.862;8.758;2022-07-23T14:42:03;0.30;;;0.30;;
7156;SDS011;3620;49.862;8.758;2022-07-23T14:44:34;0.30;;;0.30;;
7156;SDS011;3620;49.862;8.758;2022-07-23T14:47:08;0.30;;;0.30;;
7156;SDS011;3620;49.862;8.758;2022-07-23T14:50:11;0.30;;;0.30;;
7156;SDS011;3620;49.862;8.758;2022-07-23T14:52:39;0.30;;;0.30;;
7156;SDS011;3620;49.862;8.758;2022-07-23T14:55:06;0.30;;;0.30;;
7156;SDS011;3620;49.862;8.758;2022-07-23T14:57:34;0.28;;;0.28;;
7156;SDS011;3620;49.862;8.758;2022-07-23T15:00:00;0.28;;;0.28;;
7156;SDS011;3620;49.862;8.758;2022-07-23T15:02:27;0.30;;;0.30;;
7156;SDS011;3620;49.862;8.758;2022-07-23T15:04:54;0.20;;;0.20;;
7156;SDS011;3620;49.862;8.758;2022-07-23T15:07:23;0.30;;;0.30;;
7156;SDS011;3620;49.862;8.758;2022-07-23T15:09:51;0.30;;;0.30;;
7156;SDS011;3620;49.862;8.758;2022-07-23T15:12:18;0.30;;;0.30;;
7156;SDS011;3620;49.862;8.758;2022-07-23T15:14:44;0.30;;;0.30;;
7156;SDS011;3620;49.862;8.758;2022-07-23T15:17:11;0.20;;;0.20;;
7156;SDS011;3620;49.862;8.758;2022-07-23T15:19:38;0.30;;;0.30;;
7156;SDS011;3620;49.862;8.758;2022-07-23T15:22:05;0.30;;;0.30;;
7156;SDS011;3620;49.862;8.758;2022-07-23T15:24:32;0.30;;;0.30;;
7156;SDS011;3620;49.862;8.758;2022-07-23T15:27:00;0.20;;;0.20;;
7156;SDS011;3620;49.862;8.758;2022-07-23T15:29:27;0.30;;;0.30;;
7156;SDS011;3620;49.862;8.758;2022-07-23T15:31:54;0.30;;;0.30;;
7156;SDS011;3620;49.862;8.758;2022-07-23T15:34:21;0.30;;;0.30;;
7156;SDS011;3620;49.862;8.758;2022-07-23T15:36:48;0.30;;;0.30;;
7156;SDS011;3620;49.862;8.758;2022-07-23T15:39:14;0.30;;;0.30;;
7156;SDS011;3620;49.862;8.758;2022-07-23T15:41:41;0.30;;;0.30;;
7156;SDS011;3620;49.862;8.758;2022-07-23T15:44:09;0.30;;;0.30;;
7156;SDS011;3620;49.862;8.758;2022-07-23T15:46:36;0.22;;;0.22;;
7156;SDS011;3620;49.862;8.758;2022-07-23T15:49:03;0.30;;;0.30;;
7156;SDS011;3620;49.862;8.758;2022-07-23T15:51:30;0.30;;;0.30;;
7156;SDS011;3620;49.862;8.758;2022-07-23T15:53:57;0.30;;;0.30;;